Time;durP1;ratioP1;P1;durP2;ratioP2;P2;SDS_P1;SDS_P2;PMS_P1;PMS_P2;Temp;Humidity;BMP_temperature;BMP_pressure;BME280_temperature;BME280_humidity;BME280_pressure;Samples;Min_cycle;Max_cycle;Signal;HPM_P1;HPM_P2
2023/12/31 00:00:21;;;;;;;90.40;51.40;;;;;;;;;;4992054;28;20157;-86
2023/12/31 00:02:46;;;;;;;90.47;59.65;;;;;;;;;;4993780;28;20018;-86
2023/12/31 00:05:11;;;;;;;117.90;60.92;;;;;;;;;;5011722;28;20108;-86
2023/12/31 00:07:37;;;;;;;75.28;44.97;;;;;;;;;;5011743;28;20442;-86
2023/12/31 00:10:02;;;;;;;71.95;40.55;;;;;;;;;;5015022;28;20025;-86
2023/12/31 00:12:28;;;;;;;53.03;31.75;;;;;;;;;;5029463;28;20022;-86
2023/12/31 00:14:54;;;;;;;62.60;36.85;;;;;;;;;;5029699;28;20022;-86
2023/12/31 00:17:19;;;;;;;70.78;42.17;;;;;;;;;;5029328;28;20487;-86
2023/12/31 00:19:44;;;;;;;76.93;43.75;;;;;;;;;;5029694;28;20021;-86
2023/12/31 00:22:10;;;;;;;51.88;32.40;;;;;;;;;;5011441;28;20017;-86
2023/12/31 00:24:35;;;;;;;61.97;36.35;;;;;;;;;;5014603;28;20083;-87
2023/12/31 00:27:00;;;;;;;67.15;40.22;;;;;;;;;;5011050;28;20013;-86
2023/12/31 00:29:28;;;;;;;75.57;44.72;;;;;;;;;;5010930;28;20025;-86
2023/12/31 00:31:54;;;;;;;110.70;60.13;;;;;;;;;;5010789;28;20483;-86
2023/12/31 00:34:20;;;;;;;92.32;51.03;;;;;;;;;;5029983;28;20502;-87
2023/12/31 00:36:45;;;;;;;84.20;47.10;;;;;;;;;;5029056;28;20045;-87
2023/12/31 00:39:11;;;;;;;77.47;45.20;;;;;;;;;;5011182;28;20017;-86
2023/12/31 00:41:37;;;;;;;148.50;73.03;;;;;;;;;;5029339;28;20518;-85
2023/12/31 00:44:02;;;;;;;50.35;30.92;;;;;;;;;;5027844;28;20142;-86
2023/12/31 00:46:28;;;;;;;90.50;41.78;;;;;;;;;;5028903;28;20033;-86
2023/12/31 00:48:53;;;;;;;75.13;38.92;;;;;;;;;;5028712;28;20592;-86
2023/12/31 00:51:19;;;;;;;42.78;27.20;;;;;;;;;;5028914;28;20113;-86
2023/12/31 00:53:44;;;;;;;36.50;21.50;;;;;;;;;;5011536;28;20056;-86
2023/12/31 00:56:09;;;;;;;34.95;22.92;;;;;;;;;;5012770;28;20030;-85
2023/12/31 00:58:35;;;;;;;29.50;20.77;;;;;;;;;;5010767;28;20022;-86
2023/12/31 01:01:01;;;;;;;40.22;26.30;;;;;;;;;;5027425;28;20022;-86
2023/12/31 01:03:26;;;;;;;51.67;33.28;;;;;;;;;;5010983;28;20040;-86
2023/12/31 01:05:51;;;;;;;35.78;22.83;;;;;;;;;;5029289;28;20395;-86
2023/12/31 01:08:17;;;;;;;32.83;20.52;;;;;;;;;;5015356;28;20037;-86
2023/12/31 01:10:42;;;;;;;44.00;28.98;;;;;;;;;;5011692;28;20178;-86
2023/12/31 01:13:07;;;;;;;42.38;25.40;;;;;;;;;;5010406;28;20403;-86
2023/12/31 01:15:33;;;;;;;39.05;23.95;;;;;;;;;;5011075;28;20033;-86
2023/12/31 01:17:58;;;;;;;39.17;24.98;;;;;;;;;;5011127;28;20068;-85
2023/12/31 01:20:24;;;;;;;46.85;28.80;;;;;;;;;;5029511;28;20021;-86
2023/12/31 01:22:49;;;;;;;46.40;27.35;;;;;;;;;;5028297;28;20021;-86
2023/12/31 01:25:14;;;;;;;59.97;35.97;;;;;;;;;;5028518;28;20033;-86
2023/12/31 01:27:40;;;;;;;62.13;35.92;;;;;;;;;;5013091;28;20048;-86
2023/12/31 01:30:06;;;;;;;47.60;25.05;;;;;;;;;;5028176;28;20499;-86
2023/12/31 01:32:32;;;;;;;44.17;24.08;;;;;;;;;;5012303;28;20447;-86
2023/12/31 01:35:01;;;;;;;50.80;30.77;;;;;;;;;;5016479;28;20028;-86
2023/12/31 01:37:27;;;;;;;56.67;34.13;;;;;;;;;;5031698;28;20054;-86
2023/12/31 01:39:52;;;;;;;83.95;45.08;;;;;;;;;;5031965;28;20036;-88
2023/12/31 01:42:18;;;;;;;64.57;38.78;;;;;;;;;;5030542;28;20021;-86
2023/12/31 01:44:43;;;;;;;54.22;33.47;;;;;;;;;;5010725;28;20391;-86
2023/12/31 01:47:09;;;;;;;55.33;32.88;;;;;;;;;;5028524;28;20035;-86
2023/12/31 01:49:36;;;;;;;56.85;33.83;;;;;;;;;;5028756;28;20084;-86
2023/12/31 01:52:02;;;;;;;55.08;33.38;;;;;;;;;;5010889;28;20040;-86
2023/12/31 01:54:28;;;;;;;61.47;37.05;;;;;;;;;;5027710;28;20037;-86
2023/12/31 01:56:53;;;;;;;47.95;29.92;;;;;;;;;;5027954;28;20029;-86
2023/12/31 01:59:20;;;;;;;59.42;37.13;;;;;;;;;;5009916;28;20071;-85
2023/12/31 02:01:45;;;;;;;55.25;32.53;;;;;;;;;;5027804;28;20201;-88
2023/12/31 02:04:10;;;;;;;63.00;35.40;;;;;;;;;;5027702;28;20022;-86
2023/12/31 02:06:36;;;;;;;53.80;32.78;;;;;;;;;;5009742;28;20029;-86
2023/12/31 02:09:01;;;;;;;57.17;35.30;;;;;;;;;;5027597;28;20032;-86
2023/12/31 02:11:27;;;;;;;61.38;38.58;;;;;;;;;;5027559;28;20021;-86
2023/12/31 02:13:52;;;;;;;55.58;33.15;;;;;;;;;;5027143;28;20057;-87
2023/12/31 02:16:17;;;;;;;53.00;32.47;;;;;;;;;;5027247;28;20053;-87
2023/12/31 02:18:43;;;;;;;43.40;26.65;;;;;;;;;;5027498;28;20455;-87
2023/12/31 02:21:09;;;;;;;45.60;29.67;;;;;;;;;;5027548;28;20030;-86
2023/12/31 02:23:34;;;;;;;54.40;34.53;;;;;;;;;;5027297;28;20025;-86
2023/12/31 02:26:03;;;;;;;57.20;34.55;;;;;;;;;;5019165;28;20056;-85
2023/12/31 02:28:28;;;;;;;53.70;33.55;;;;;;;;;;5013664;28;20033;-86
2023/12/31 02:30:54;;;;;;;49.47;32.50;;;;;;;;;;5030984;28;20511;-87
2023/12/31 02:33:19;;;;;;;50.33;32.75;;;;;;;;;;5013937;28;20029;-87
2023/12/31 02:35:44;;;;;;;57.40;34.28;;;;;;;;;;5030856;28;20032;-86
2023/12/31 02:38:09;;;;;;;49.25;30.70;;;;;;;;;;5031195;28;20511;-86
2023/12/31 02:40:35;;;;;;;47.08;28.65;;;;;;;;;;5018638;28;20033;-86
2023/12/31 02:43:00;;;;;;;42.35;26.27;;;;;;;;;;5031263;28;20014;-86
2023/12/31 02:45:25;;;;;;;46.05;28.65;;;;;;;;;;5031388;28;20096;-86
2023/12/31 02:47:51;;;;;;;43.03;26.55;;;;;;;;;;5013354;28;20049;-86
2023/12/31 02:50:16;;;;;;;41.03;25.92;;;;;;;;;;5013767;28;20030;-86
2023/12/31 02:52:41;;;;;;;45.92;26.88;;;;;;;;;;5013238;28;20060;-86
2023/12/31 02:55:07;;;;;;;42.45;26.75;;;;;;;;;;5029413;28;20032;-87
2023/12/31 02:57:32;;;;;;;48.03;27.80;;;;;;;;;;5013273;28;20024;-86
2023/12/31 02:59:57;;;;;;;43.05;28.33;;;;;;;;;;5012289;28;20025;-87
2023/12/31 03:02:23;;;;;;;52.40;32.65;;;;;;;;;;5030316;28;20029;-86
2023/12/31 03:04:48;;;;;;;63.13;38.42;;;;;;;;;;5013307;28;20029;-86
2023/12/31 03:07:13;;;;;;;61.67;37.97;;;;;;;;;;5030538;28;20036;-86
2023/12/31 03:09:39;;;;;;;60.40;38.20;;;;;;;;;;5030410;28;20013;-89
2023/12/31 03:12:04;;;;;;;70.30;39.65;;;;;;;;;;5019407;28;20108;-88
2023/12/31 03:14:30;;;;;;;54.63;35.90;;;;;;;;;;5029167;28;20467;-86
2023/12/31 03:16:55;;;;;;;55.47;35.13;;;;;;;;;;5012869;28;20021;-89
2023/12/31 03:19:20;;;;;;;58.95;37.53;;;;;;;;;;5030080;28;20021;-88
2023/12/31 03:21:46;;;;;;;61.38;37.22;;;;;;;;;;5014266;28;20391;-88
2023/12/31 03:24:11;;;;;;;60.28;37.88;;;;;;;;;;5030612;28;20018;-88
2023/12/31 03:26:36;;;;;;;61.78;36.72;;;;;;;;;;5012697;28;20021;-88
2023/12/31 03:29:02;;;;;;;58.97;36.33;;;;;;;;;;5012553;28;20028;-88
2023/12/31 03:31:27;;;;;;;56.28;34.20;;;;;;;;;;5012253;28;20072;-88
2023/12/31 03:33:54;;;;;;;50.97;31.00;;;;;;;;;;5029502;28;20030;-86
2023/12/31 03:36:24;;;;;;;60.22;36.70;;;;;;;;;;5019957;28;20025;-86
2023/12/31 03:38:49;;;;;;;47.83;31.65;;;;;;;;;;5017320;28;20128;-88
2023/12/31 03:41:15;;;;;;;46.05;28.85;;;;;;;;;;5012617;28;20096;-88
2023/12/31 03:43:40;;;;;;;47.83;27.95;;;;;;;;;;5019799;28;20072;-88
2023/12/31 03:46:05;;;;;;;45.63;30.08;;;;;;;;;;5012217;28;20021;-88
2023/12/31 03:48:31;;;;;;;48.70;30.38;;;;;;;;;;5008591;28;20045;-87
2023/12/31 03:50:56;;;;;;;46.72;29.27;;;;;;;;;;4992197;28;20022;-88
2023/12/31 03:53:21;;;;;;;47.05;29.02;;;;;;;;;;5015974;28;20036;-88
2023/12/31 03:55:47;;;;;;;53.97;35.35;;;;;;;;;;5011837;28;20108;-88
2023/12/31 03:58:12;;;;;;;50.65;31.50;;;;;;;;;;5028519;28;20021;-88
2023/12/31 04:00:37;;;;;;;50.95;31.83;;;;;;;;;;5029443;28;20049;-88
2023/12/31 04:03:03;;;;;;;49.97;31.33;;;;;;;;;;5012062;28;20070;-88
2023/12/31 04:05:29;;;;;;;55.25;33.20;;;;;;;;;;5029791;28;20032;-88
2023/12/31 04:07:55;;;;;;;57.85;35.10;;;;;;;;;;5029962;28;20026;-88
2023/12/31 04:10:20;;;;;;;328.17;197.30;;;;;;;;;;5029396;28;20021;-88
2023/12/31 04:12:45;;;;;;;51.83;34.00;;;;;;;;;;5011702;28;20506;-88
2023/12/31 04:15:11;;;;;;;94.30;47.42;;;;;;;;;;5024615;28;20111;-88
2023/12/31 04:17:36;;;;;;;54.65;34.90;;;;;;;;;;5024984;28;20025;-88
2023/12/31 04:20:02;;;;;;;94.55;50.88;;;;;;;;;;5029532;28;20358;-88
2023/12/31 04:22:28;;;;;;;141.82;72.80;;;;;;;;;;5011343;28;20024;-88
2023/12/31 04:24:53;;;;;;;112.15;56.17;;;;;;;;;;5029601;28;20033;-88
2023/12/31 04:27:19;;;;;;;83.28;45.45;;;;;;;;;;5011633;28;20358;-88
2023/12/31 04:29:44;;;;;;;184.57;88.50;;;;;;;;;;5029077;28;20021;-88
2023/12/31 04:32:09;;;;;;;358.35;162.13;;;;;;;;;;5011472;28;20021;-88
2023/12/31 04:34:35;;;;;;;187.20;87.82;;;;;;;;;;5011178;28;20022;-88
2023/12/31 04:37:00;;;;;;;256.75;122.18;;;;;;;;;;5029312;28;20079;-88
2023/12/31 04:39:25;;;;;;;167.25;78.30;;;;;;;;;;5011072;28;20025;-88
2023/12/31 04:41:51;;;;;;;121.57;60.17;;;;;;;;;;5028877;28;20431;-88
2023/12/31 04:44:16;;;;;;;63.58;39.78;;;;;;;;;;5028986;28;20024;-88
2023/12/31 04:46:41;;;;;;;64.85;39.20;;;;;;;;;;5029077;28;20056;-88
2023/12/31 04:49:08;;;;;;;65.15;38.08;;;;;;;;;;5027362;28;20029;-88
2023/12/31 04:51:34;;;;;;;65.07;39.13;;;;;;;;;;5021714;28;20033;-88
2023/12/31 04:53:59;;;;;;;65.05;38.35;;;;;;;;;;5028815;28;20539;-87
2023/12/31 04:56:25;;;;;;;88.00;54.80;;;;;;;;;;5020717;28;20053;-88
2023/12/31 04:58:52;;;;;;;88.53;54.33;;;;;;;;;;5010867;28;20371;-88
2023/12/31 05:01:17;;;;;;;99.65;62.80;;;;;;;;;;5014602;28;20017;-88
2023/12/31 05:03:44;;;;;;;63.90;36.60;;;;;;;;;;5028576;28;20020;-88
2023/12/31 05:06:09;;;;;;;67.80;41.08;;;;;;;;;;5025656;28;20028;-88
2023/12/31 05:08:35;;;;;;;63.60;39.55;;;;;;;;;;5028396;28;20021;-88
2023/12/31 05:11:00;;;;;;;59.45;35.40;;;;;;;;;;5028460;28;20013;-88
2023/12/31 05:13:25;;;;;;;137.95;87.50;;;;;;;;;;5028644;28;20033;-87
2023/12/31 05:15:51;;;;;;;97.68;58.72;;;;;;;;;;5028125;28;20041;-88
2023/12/31 05:18:17;;;;;;;85.80;48.30;;;;;;;;;;5028556;28;20018;-88
2023/12/31 05:20:42;;;;;;;100.57;62.40;;;;;;;;;;5010091;28;20021;-88
2023/12/31 05:23:07;;;;;;;79.68;47.38;;;;;;;;;;5028084;28;20076;-87
2023/12/31 05:25:33;;;;;;;88.53;51.47;;;;;;;;;;5010401;28;20021;-88
2023/12/31 05:27:58;;;;;;;102.65;56.05;;;;;;;;;;5028359;28;20100;-88
2023/12/31 05:30:23;;;;;;;76.47;45.10;;;;;;;;;;5010103;28;20037;-88
2023/12/31 05:32:49;;;;;;;121.85;70.55;;;;;;;;;;5027690;28;20029;-88
2023/12/31 05:35:14;;;;;;;168.27;93.88;;;;;;;;;;5010195;28;20033;-88
2023/12/31 05:37:39;;;;;;;128.88;69.40;;;;;;;;;;5010925;28;20121;-88
2023/12/31 05:40:05;;;;;;;79.70;45.45;;;;;;;;;;5010052;28;20426;-87
2023/12/31 05:42:31;;;;;;;77.85;46.40;;;;;;;;;;5026976;28;20048;-88
2023/12/31 05:44:56;;;;;;;115.47;71.50;;;;;;;;;;5027987;28;20025;-88
2023/12/31 05:47:22;;;;;;;81.35;48.00;;;;;;;;;;5010394;28;20475;-88
2023/12/31 05:49:47;;;;;;;63.17;41.40;;;;;;;;;;5027513;28;20026;-88
2023/12/31 05:52:12;;;;;;;64.90;42.80;;;;;;;;;;5010098;28;20024;-88
2023/12/31 05:54:39;;;;;;;67.80;42.88;;;;;;;;;;5022545;28;20134;-87
2023/12/31 05:57:04;;;;;;;172.90;78.80;;;;;;;;;;5027939;28;20021;-88
2023/12/31 05:59:30;;;;;;;58.33;35.47;;;;;;;;;;5027406;28;20044;-88
2023/12/31 06:01:56;;;;;;;100.32;54.92;;;;;;;;;;5009952;28;20487;-88
2023/12/31 06:04:21;;;;;;;54.95;34.47;;;;;;;;;;5027532;28;20044;-88
2023/12/31 06:06:46;;;;;;;60.40;38.13;;;;;;;;;;5027615;28;20025;-89
2023/12/31 06:09:12;;;;;;;60.47;35.15;;;;;;;;;;5009751;28;20164;-88
2023/12/31 06:11:38;;;;;;;88.13;50.80;;;;;;;;;;5028332;28;20029;-88
2023/12/31 06:14:03;;;;;;;58.10;35.25;;;;;;;;;;5013739;28;20052;-88
2023/12/31 06:16:28;;;;;;;62.05;38.33;;;;;;;;;;5027462;28;20021;-88
2023/12/31 06:18:54;;;;;;;80.88;51.40;;;;;;;;;;5010201;28;20018;-88
2023/12/31 06:21:19;;;;;;;112.40;56.90;;;;;;;;;;5024214;28;20483;-87
2023/12/31 06:23:44;;;;;;;146.35;83.95;;;;;;;;;;5029677;28;20058;-88
2023/12/31 06:26:09;;;;;;;156.77;93.30;;;;;;;;;;5008309;28;20057;-87
2023/12/31 06:28:35;;;;;;;171.50;98.47;;;;;;;;;;5009734;28;20105;-88
2023/12/31 06:31:00;;;;;;;203.07;116.07;;;;;;;;;;5011320;28;20081;-88
2023/12/31 06:33:26;;;;;;;238.55;132.80;;;;;;;;;;5029220;28;20021;-88
2023/12/31 06:35:51;;;;;;;210.07;114.57;;;;;;;;;;5007035;28;20030;-88
2023/12/31 06:38:17;;;;;;;232.40;131.02;;;;;;;;;;4972794;28;20042;-87
2023/12/31 06:40:42;;;;;;;209.52;110.10;;;;;;;;;;4995552;28;20030;-88
2023/12/31 06:43:07;;;;;;;198.98;115.20;;;;;;;;;;5007849;28;20013;-88
2023/12/31 06:45:33;;;;;;;149.30;90.93;;;;;;;;;;5005303;28;20492;-88
2023/12/31 06:47:58;;;;;;;152.95;90.93;;;;;;;;;;4990054;28;20025;-87
2023/12/31 06:50:23;;;;;;;262.15;162.13;;;;;;;;;;5007976;28;20053;-87
2023/12/31 06:52:49;;;;;;;161.25;102.05;;;;;;;;;;4988162;28;20030;-88
2023/12/31 06:55:14;;;;;;;157.50;97.97;;;;;;;;;;4987169;28;20031;-88
2023/12/31 06:57:40;;;;;;;179.27;113.55;;;;;;;;;;5007504;28;20022;-88
2023/12/31 07:00:07;;;;;;;166.20;108.35;;;;;;;;;;4990243;28;20147;-88
2023/12/31 07:02:33;;;;;;;242.93;163.35;;;;;;;;;;4988247;28;20485;-88
2023/12/31 07:04:58;;;;;;;129.30;82.03;;;;;;;;;;5007623;28;20026;-88
2023/12/31 07:07:23;;;;;;;129.15;88.82;;;;;;;;;;5008216;28;20447;-87
2023/12/31 07:09:49;;;;;;;127.28;86.35;;;;;;;;;;4991755;28;20032;-87
2023/12/31 07:12:14;;;;;;;135.93;92.50;;;;;;;;;;5004395;28;20045;-88
2023/12/31 07:14:39;;;;;;;139.02;96.40;;;;;;;;;;4993618;28;20033;-87
2023/12/31 07:17:05;;;;;;;138.40;99.03;;;;;;;;;;4985397;28;20033;-88
2023/12/31 07:19:30;;;;;;;148.93;104.78;;;;;;;;;;5011193;28;20479;-88
2023/12/31 07:21:55;;;;;;;142.70;99.32;;;;;;;;;;5011221;28;20022;-88
2023/12/31 07:24:21;;;;;;;178.15;99.93;;;;;;;;;;5010854;28;20065;-87
2023/12/31 07:26:47;;;;;;;185.60;88.45;;;;;;;;;;5010850;28;20033;-88
2023/12/31 07:29:13;;;;;;;387.80;136.85;;;;;;;;;;4993387;28;20026;-88
2023/12/31 07:31:38;;;;;;;256.35;109.28;;;;;;;;;;5011268;28;20104;-87
2023/12/31 07:34:04;;;;;;;258.92;114.97;;;;;;;;;;4993456;28;20057;-87
2023/12/31 07:36:29;;;;;;;114.78;73.03;;;;;;;;;;5013593;28;20033;-87
2023/12/31 07:38:56;;;;;;;113.38;73.82;;;;;;;;;;5028283;28;20414;-88
2023/12/31 07:41:21;;;;;;;116.95;69.75;;;;;;;;;;5032458;28;20026;-87
2023/12/31 07:43:46;;;;;;;123.85;79.75;;;;;;;;;;5032021;28;20104;-87
2023/12/31 07:46:13;;;;;;;250.40;150.20;;;;;;;;;;5031473;28;20335;-87
2023/12/31 07:48:38;;;;;;;155.00;75.47;;;;;;;;;;5031275;28;20029;-87
2023/12/31 07:51:06;;;;;;;311.83;149.70;;;;;;;;;;5030121;28;20556;-88
2023/12/31 07:53:31;;;;;;;138.70;78.25;;;;;;;;;;5012609;28;20071;-87
2023/12/31 07:55:57;;;;;;;95.65;56.15;;;;;;;;;;5029622;28;20025;-88
2023/12/31 07:58:24;;;;;;;87.07;53.25;;;;;;;;;;5014452;28;20021;-88
2023/12/31 08:00:50;;;;;;;97.47;58.33;;;;;;;;;;5011723;28;20116;-87
2023/12/31 08:03:15;;;;;;;136.13;82.72;;;;;;;;;;5030205;28;20090;-87
2023/12/31 08:05:40;;;;;;;703.47;351.55;;;;;;;;;;5012005;28;20025;-88
2023/12/31 08:08:07;;;;;;;187.98;95.03;;;;;;;;;;5012358;28;20029;-87
2023/12/31 08:10:32;;;;;;;499.67;242.13;;;;;;;;;;5023419;28;20498;-85
2023/12/31 08:12:58;;;;;;;105.60;66.13;;;;;;;;;;5012361;28;20077;-85
2023/12/31 08:15:24;;;;;;;440.90;187.65;;;;;;;;;;5011372;28;20115;-85
2023/12/31 08:17:49;;;;;;;99.78;61.85;;;;;;;;;;5011613;28;20107;-85
2023/12/31 08:20:14;;;;;;;122.00;73.35;;;;;;;;;;5027994;28;20032;-85
2023/12/31 08:22:40;;;;;;;112.57;72.97;;;;;;;;;;5027798;28;20010;-85
2023/12/31 08:25:05;;;;;;;630.13;295.70;;;;;;;;;;5011380;28;20041;-86
2023/12/31 08:27:31;;;;;;;116.68;64.57;;;;;;;;;;5029693;28;20926;-85
2023/12/31 08:29:56;;;;;;;290.15;136.82;;;;;;;;;;5025029;28;20487;-86
2023/12/31 08:32:26;;;;;;;76.68;51.45;;;;;;;;;;5011077;28;20079;-85
2023/12/31 08:34:52;;;;;;;366.48;215.10;;;;;;;;;;5012084;28;20028;-88
2023/12/31 08:37:17;;;;;;;93.95;63.05;;;;;;;;;;5011380;28;20046;-88
2023/12/31 08:39:43;;;;;;;420.52;202.40;;;;;;;;;;5011746;28;20388;-88
2023/12/31 08:42:08;;;;;;;1280.78;676.90;;;;;;;;;;5011003;28;20100;-87
2023/12/31 08:44:34;;;;;;;552.03;307.73;;;;;;;;;;5011338;28;20033;-88
2023/12/31 08:46:59;;;;;;;465.88;317.50;;;;;;;;;;5029186;28;20025;-88
2023/12/31 08:49:27;;;;;;;201.45;142.38;;;;;;;;;;5011789;28;20029;-85
2023/12/31 08:51:54;;;;;;;127.57;90.65;;;;;;;;;;5010200;28;20028;-86
2023/12/31 08:54:20;;;;;;;75.55;55.28;;;;;;;;;;5026674;28;20139;-86
2023/12/31 08:56:45;;;;;;;64.80;56.38;;;;;;;;;;5016460;28;20072;-86
2023/12/31 08:59:10;;;;;;;58.88;47.42;;;;;;;;;;5026744;28;20021;-86
2023/12/31 09:01:36;;;;;;;88.85;58.42;;;;;;;;;;5007222;28;20487;-86
2023/12/31 09:04:01;;;;;;;92.82;60.22;;;;;;;;;;5008417;28;20021;-87
2023/12/31 09:06:26;;;;;;;461.88;313.00;;;;;;;;;;5009434;28;20312;-88
2023/12/31 09:08:52;;;;;;;269.92;181.18;;;;;;;;;;5026513;28;20033;-87
2023/12/31 09:11:19;;;;;;;142.45;75.28;;;;;;;;;;5026671;28;20035;-87
2023/12/31 09:13:44;;;;;;;85.50;49.75;;;;;;;;;;5008905;28;20092;-87
2023/12/31 09:16:09;;;;;;;148.93;89.82;;;;;;;;;;5026488;28;20057;-87
2023/12/31 09:18:35;;;;;;;39.08;27.80;;;;;;;;;;4998014;28;20300;-88
2023/12/31 09:21:00;;;;;;;489.17;245.88;;;;;;;;;;4991734;28;20123;-88
2023/12/31 09:23:25;;;;;;;95.07;59.15;;;;;;;;;;5009276;28;20021;-88
2023/12/31 09:25:53;;;;;;;78.25;54.20;;;;;;;;;;5026950;28;20029;-87
2023/12/31 09:28:19;;;;;;;90.65;65.60;;;;;;;;;;5009096;28;20017;-88
2023/12/31 09:30:44;;;;;;;40.80;29.60;;;;;;;;;;5008466;28;20025;-89
2023/12/31 09:33:09;;;;;;;168.38;102.65;;;;;;;;;;5007935;28;20025;-89
2023/12/31 09:35:35;;;;;;;171.25;104.90;;;;;;;;;;5007384;28;20025;-88
2023/12/31 09:38:00;;;;;;;188.73;101.07;;;;;;;;;;4992442;28;20519;-88
2023/12/31 09:40:25;;;;;;;258.98;136.55;;;;;;;;;;4992479;28;20111;-88
2023/12/31 09:42:51;;;;;;;305.20;160.75;;;;;;;;;;5005858;28;20158;-87
2023/12/31 09:45:20;;;;;;;85.80;50.40;;;;;;;;;;5006385;28;20029;-87
2023/12/31 09:47:46;;;;;;;263.40;133.05;;;;;;;;;;4988248;28;20072;-88
2023/12/31 09:50:11;;;;;;;53.30;37.08;;;;;;;;;;4987698;28;20026;-87
2023/12/31 09:52:37;;;;;;;37.63;29.15;;;;;;;;;;5000586;28;20330;-91
2023/12/31 09:55:04;;;;;;;169.68;113.55;;;;;;;;;;4989867;28;20472;-92
2023/12/31 09:57:33;;;;;;;76.25;57.20;;;;;;;;;;4990925;28;20392;-92
2023/12/31 09:59:58;;;;;;;;;;;;;;;;;;5007799;28;20028;-91
2023/12/31 10:02:23;;;;;;;220.07;125.67;;;;;;;;;;5006163;28;20476;-88
2023/12/31 10:04:52;;;;;;;168.13;113.40;;;;;;;;;;4988020;28;20259;-88
2023/12/31 10:07:17;;;;;;;81.65;63.35;;;;;;;;;;4988474;28;20061;-88
2023/12/31 10:09:43;;;;;;;172.60;110.15;;;;;;;;;;4987991;28;20072;-89
2023/12/31 10:12:08;;;;;;;217.88;121.43;;;;;;;;;;4985882;28;20029;-89
2023/12/31 10:14:33;;;;;;;101.53;67.32;;;;;;;;;;4988496;28;20368;-89
2023/12/31 10:16:59;;;;;;;173.43;98.75;;;;;;;;;;5004227;28;20116;-89
2023/12/31 10:19:24;;;;;;;164.88;107.53;;;;;;;;;;5006385;28;20026;-88
2023/12/31 10:21:49;;;;;;;125.55;81.32;;;;;;;;;;4971776;28;20034;-89
2023/12/31 10:24:16;;;;;;;174.60;107.00;;;;;;;;;;4988372;28;20030;-88
2023/12/31 10:26:41;;;;;;;166.32;100.82;;;;;;;;;;5004334;28;20026;-88
2023/12/31 10:29:06;;;;;;;89.35;60.92;;;;;;;;;;5004207;28;20092;-88
2023/12/31 10:31:32;;;;;;;55.63;44.38;;;;;;;;;;4987808;28;20487;-89
2023/12/31 10:34:14;;;;;;;71.05;53.97;;;;;;;;;;4988952;28;20116;-89
2023/12/31 10:36:39;;;;;;;91.55;67.15;;;;;;;;;;4987878;28;20057;-89
2023/12/31 10:39:05;;;;;;;217.50;121.53;;;;;;;;;;4987619;28;20045;-90
2023/12/31 10:41:31;;;;;;;67.07;51.08;;;;;;;;;;5009617;28;20026;-90
2023/12/31 10:44:01;;;;;;;119.60;65.93;;;;;;;;;;4987860;28;20029;-90
2023/12/31 10:46:27;;;;;;;59.70;46.15;;;;;;;;;;4988958;28;20040;-92
2023/12/31 10:49:03;;;;;;;154.73;80.93;;;;;;;;;;5009186;28;20029;-92
2023/12/31 10:51:28;;;;;;;66.10;46.80;;;;;;;;;;4991035;28;20072;-92
2023/12/31 10:53:57;;;;;;;126.88;101.78;;;;;;;;;;4991383;28;20404;-92
2023/12/31 10:56:23;;;;;;;63.17;42.92;;;;;;;;;;4991139;28;20040;-92
2023/12/31 10:58:50;;;;;;;423.77;270.35;;;;;;;;;;5008308;28;20035;-92
2023/12/31 11:01:17;;;;;;;702.92;420.40;;;;;;;;;;4991538;28;20030;-92
2023/12/31 11:03:42;;;;;;;244.63;122.10;;;;;;;;;;4992033;28;20494;-91
2023/12/31 11:06:09;;;;;;;54.15;33.65;;;;;;;;;;4991488;28;20129;-91
2023/12/31 11:08:34;;;;;;;103.22;80.00;;;;;;;;;;4991487;28;20029;-89
2023/12/31 11:11:00;;;;;;;54.17;27.70;;;;;;;;;;5004640;28;20030;-91
2023/12/31 11:13:26;;;;;;;20.85;14.75;;;;;;;;;;4991107;28;20029;-92
2023/12/31 11:15:53;;;;;;;33.58;19.10;;;;;;;;;;4996516;28;20021;-92
2023/12/31 11:18:36;;;;;;;11.05;8.88;;;;;;;;;;4991239;28;20026;-91
2023/12/31 11:21:05;;;;;;;10.68;8.45;;;;;;;;;;4993637;28;20571;-91
2023/12/31 11:23:36;;;;;;;9.60;6.93;;;;;;;;;;4991230;28;20022;-91
2023/12/31 11:26:05;;;;;;;16.02;11.32;;;;;;;;;;4991131;28;20088;-91
2023/12/31 11:28:30;;;;;;;10.60;8.25;;;;;;;;;;4990775;28;20477;-91
2023/12/31 11:30:57;;;;;;;12.90;9.00;;;;;;;;;;4993983;28;20128;-91
2023/12/31 11:33:29;;;;;;;10.02;7.68;;;;;;;;;;5009654;28;20056;-91
2023/12/31 11:35:56;;;;;;;178.98;71.10;;;;;;;;;;4996309;28;20072;-91
2023/12/31 11:38:21;;;;;;;26.80;14.88;;;;;;;;;;5026074;28;20045;-90
2023/12/31 11:40:48;;;;;;;11.18;9.50;;;;;;;;;;5010031;28;20021;-93
2023/12/31 11:43:14;;;;;;;17.55;13.52;;;;;;;;;;5016384;28;20048;-92
2023/12/31 11:45:43;;;;;;;49.47;25.98;;;;;;;;;;5024064;28;20120;-92
2023/12/31 11:48:24;;;;;;;9.57;7.72;;;;;;;;;;5028348;28;20032;-93
2023/12/31 11:50:54;;;;;;;8.70;6.57;;;;;;;;;;5014696;28;20065;-90
2023/12/31 11:53:20;;;;;;;8.77;6.90;;;;;;;;;;5009896;28;20056;-89
2023/12/31 11:55:49;;;;;;;6.88;6.03;;;;;;;;;;5027862;28;20551;-90
2023/12/31 11:58:14;;;;;;;6.82;6.00;;;;;;;;;;5026938;28;20025;-90
2023/12/31 12:00:40;;;;;;;159.55;83.88;;;;;;;;;;5009627;28;20032;-90
2023/12/31 12:03:08;;;;;;;140.52;70.35;;;;;;;;;;5005475;28;20021;-90
2023/12/31 12:05:33;;;;;;;7.47;6.40;;;;;;;;;;5012151;28;20025;-90
2023/12/31 12:08:01;;;;;;;6.43;5.55;;;;;;;;;;5011838;28;20025;-90
2023/12/31 12:10:27;;;;;;;8.23;6.90;;;;;;;;;;5011237;28;20031;-89
2023/12/31 12:12:56;;;;;;;16.23;11.70;;;;;;;;;;5011825;28;20017;-90
2023/12/31 12:15:22;;;;;;;17.20;13.70;;;;;;;;;;5012479;28;20022;-89
2023/12/31 12:17:47;;;;;;;9.68;7.80;;;;;;;;;;5011445;28;20502;-90
2023/12/31 12:20:13;;;;;;;8.68;6.97;;;;;;;;;;5028401;28;20057;-90
2023/12/31 12:22:39;;;;;;;17.70;12.38;;;;;;;;;;5011820;28;20434;-90
2023/12/31 12:25:04;;;;;;;16.45;11.57;;;;;;;;;;5013270;28;20025;-90
2023/12/31 12:27:30;;;;;;;13.77;10.18;;;;;;;;;;5027799;28;20395;-90
2023/12/31 12:29:56;;;;;;;16.25;14.48;;;;;;;;;;5029648;28;20036;-90
2023/12/31 12:32:21;;;;;;;16.95;14.43;;;;;;;;;;5011264;28;20036;-90
2023/12/31 12:34:47;;;;;;;12.50;9.57;;;;;;;;;;5011298;28;20057;-90
2023/12/31 12:37:13;;;;;;;8.93;7.90;;;;;;;;;;5011287;28;20440;-90
2023/12/31 12:39:38;;;;;;;12.02;10.35;;;;;;;;;;5027791;28;20108;-89
2023/12/31 12:42:03;;;;;;;125.68;111.93;;;;;;;;;;5010677;28;20344;-90
2023/12/31 12:44:29;;;;;;;27.23;17.88;;;;;;;;;;5011275;28;20022;-90
2023/12/31 12:46:54;;;;;;;22.48;14.30;;;;;;;;;;5012902;28;20033;-91
2023/12/31 12:49:20;;;;;;;32.10;19.38;;;;;;;;;;5011076;28;20030;-90
2023/12/31 12:51:46;;;;;;;102.05;50.50;;;;;;;;;;5011212;28;20021;-91
2023/12/31 12:54:11;;;;;;;42.35;23.15;;;;;;;;;;5011065;28;20022;-92
2023/12/31 12:56:37;;;;;;;71.28;48.08;;;;;;;;;;5028740;28;20033;-92
2023/12/31 12:59:03;;;;;;;26.80;16.52;;;;;;;;;;5010804;28;20037;-92
2023/12/31 13:01:29;;;;;;;47.83;24.55;;;;;;;;;;5010513;28;20100;-91
2023/12/31 13:03:55;;;;;;;20.15;15.27;;;;;;;;;;5026250;28;20391;-91
2023/12/31 13:06:20;;;;;;;74.20;41.40;;;;;;;;;;5027183;28;20027;-92
2023/12/31 13:08:47;;;;;;;15.02;10.25;;;;;;;;;;5015330;28;20530;-93
2023/12/31 13:11:13;;;;;;;17.27;13.95;;;;;;;;;;4987100;28;20600;-93
2023/12/31 13:13:38;;;;;;;20.35;13.95;;;;;;;;;;4988056;28;20247;-91
2023/12/31 13:16:04;;;;;;;12.07;8.90;;;;;;;;;;5003798;28;20416;-91
2023/12/31 13:18:30;;;;;;;8.90;7.13;;;;;;;;;;4987161;28;20488;-90
2023/12/31 13:20:55;;;;;;;41.15;25.40;;;;;;;;;;4986609;28;20030;-90
2023/12/31 13:23:21;;;;;;;11.40;8.27;;;;;;;;;;4987215;28;20025;-91
2023/12/31 13:25:46;;;;;;;17.60;12.27;;;;;;;;;;4987544;28;20038;-90
2023/12/31 13:28:12;;;;;;;18.70;14.10;;;;;;;;;;4987275;28;20481;-91
2023/12/31 13:30:37;;;;;;;16.33;12.43;;;;;;;;;;4988128;28;20558;-91
2023/12/31 13:33:03;;;;;;;53.67;39.95;;;;;;;;;;4987026;28;20182;-90
2023/12/31 13:35:29;;;;;;;19.98;13.63;;;;;;;;;;4987446;28;20473;-90
2023/12/31 13:37:54;;;;;;;69.30;41.60;;;;;;;;;;4986210;28;20058;-90
2023/12/31 13:40:19;;;;;;;158.70;90.57;;;;;;;;;;4986230;28;20026;-93
2023/12/31 13:42:46;;;;;;;129.18;83.75;;;;;;;;;;4991502;28;20117;-91
2023/12/31 13:45:11;;;;;;;24.48;19.15;;;;;;;;;;5010279;28;20025;-91
2023/12/31 13:47:36;;;;;;;270.30;183.43;;;;;;;;;;5027683;28;20032;-91
2023/12/31 13:50:03;;;;;;;26.83;18.42;;;;;;;;;;5009955;28;20537;-89
2023/12/31 13:52:29;;;;;;;39.55;29.08;;;;;;;;;;5009971;28;20443;-87
2023/12/31 13:54:55;;;;;;;29.77;22.30;;;;;;;;;;4993724;28;20356;-86
2023/12/31 13:57:20;;;;;;;51.30;37.08;;;;;;;;;;4995221;28;20108;-86
2023/12/31 13:59:45;;;;;;;89.82;44.17;;;;;;;;;;5005728;28;20053;-87
2023/12/31 14:02:11;;;;;;;56.72;41.75;;;;;;;;;;5027401;28;20051;-86